Main page
METAR-TAF:

METAR-TAF

Airports :

Oslo, Norway

Oslo Airport

latitude: 60-12N, longitude: 011-05E, elevation: 208 m

Current weather observation

The report was made 35 minutes ago, at 08:20 UTC
Wind 4 kt from the South/Southwest, varying between South/Southeast and West
Temperature 7°C
Humidity 39%
Pressure 1021 hPa
Visibility 10 km or more
no clouds below 1500 m and no cumulonimbus

METAR: ENGM 300820Z 20004KT 160V260 CAVOK 07/M06 Q1021 NOSIG

Time: 10:55 (08:55 UTC)

Forecast

Forecast valid from 30 at 06 UTC to 01 at 06 UTC
Wind 3 kt from variable directions
Visibility 10 km or more
no clouds below 1500 m and no cumulonimbus
Becoming
from 30 at 08 UTC to 30 at 11 UTC
Wind 10 kt from the South/Southwest
Probability 30%
from 01 at 00 UTC to 01 at 06 UTC
Visibility: 2000 m
Broken clouds at a height of 200 ft
patches of fog

TAF: ENGM 3006/0106 VRB03KT CAVOK BECMG 3008/3011 20010KT PROB30 0100/0106 2000 BCFG BKN002

Weather observations and forecasts of more than 4000 airports (METAR and TAF reports).

The available stations are represented by yellow and red dots on the map.

Hover mouse over dot to see the name of the station.

Then click to see weather observations and forecasts.

To change the map : click on the green buttons with a black cross to zoom in, on the green button with a dash to zoom out, or on the green arrows for adjacent maps.


METAR-TAF: